Time;durP1;ratioP1;P1;durP2;ratioP2;P2;SDS_P1;SDS_P2;PMS_P1;PMS_P2;Temp;Humidity;BMP_temperature;BMP_pressure;BME280_temperature;BME280_humidity;BME280_pressure;Samples;Min_cycle;Max_cycle;Signal;HPM_P1;HPM_P2
2022/12/07 00:01:08;;;;;;;9.65;5.80;;;2.90;99.90;;;;;;6149768;23;20154;-88
2022/12/07 00:03:34;;;;;;;13.95;6.55;;;3.80;99.90;;;;;;6153436;23;20165;-88
2022/12/07 00:06:01;;;;;;;16.63;6.72;;;3.20;99.90;;;;;;6179107;23;20571;-87
2022/12/07 00:08:26;;;;;;;11.07;6.32;;;3.20;99.90;;;;;;6154456;23;20161;-88
2022/12/07 00:10:52;;;;;;;14.17;6.07;;;3.20;99.90;;;;;;6195747;23;20173;-88
2022/12/07 00:13:20;;;;;;;13.17;7.43;;;3.20;99.90;;;;;;6230103;23;20150;-86
2022/12/07 00:15:45;;;;;;;13.10;5.82;;;3.20;99.90;;;;;;6231718;23;20192;-89
2022/12/07 00:18:11;;;;;;;10.43;5.93;;;3.20;99.90;;;;;;6213166;23;20208;-89
2022/12/07 00:20:36;;;;;;;13.10;6.33;;;3.20;99.90;;;;;;6213867;23;20160;-89
2022/12/07 00:23:02;;;;;;;15.30;7.13;;;3.20;99.90;;;;;;6208895;23;20595;-86
2022/12/07 00:25:29;;;;;;;9.40;6.30;;;3.20;99.90;;;;;;6212435;23;20149;-88
2022/12/07 00:27:56;;;;;;;11.10;6.65;;;3.20;99.90;;;;;;6209050;23;20173;-89
2022/12/07 00:30:22;;;;;;;13.63;7.18;;;3.20;99.90;;;;;;6210344;23;20157;-89
2022/12/07 00:32:48;;;;;;;9.95;7.18;;;3.20;99.90;;;;;;6211749;23;20164;-89
2022/12/07 00:35:13;;;;;;;11.60;6.63;;;3.20;99.90;;;;;;6213443;23;20258;-90
2022/12/07 00:37:39;;;;;;;12.10;7.53;;;3.20;99.90;;;;;;6207575;23;20631;-87
2022/12/07 00:40:06;;;;;;;11.63;8.17;;;3.20;99.90;;;;;;6207372;23;20371;-87
2022/12/07 00:42:31;;;;;;;12.65;7.45;;;3.20;99.90;;;;;;6215768;23;20264;-87
2022/12/07 00:44:57;;;;;;;12.87;7.67;;;3.20;99.90;;;;;;6212046;23;20153;-86
2022/12/07 00:47:22;;;;;;;13.60;7.47;;;3.10;99.90;;;;;;6212428;23;20556;-87
2022/12/07 00:49:48;;;;;;;14.43;8.40;;;3.20;99.90;;;;;;6213722;23;20261;-88
2022/12/07 00:52:13;;;;;;;13.93;7.00;;;3.20;99.90;;;;;;6215234;23;20180;-88
2022/12/07 00:54:39;;;;;;;11.47;7.00;;;3.10;99.90;;;;;;6210998;23;20180;-86
2022/12/07 00:57:05;;;;;;;14.43;8.70;;;3.20;99.90;;;;;;6211019;23;20220;-88
2022/12/07 00:59:30;;;;;;;13.17;8.43;;;3.10;99.90;;;;;;6214759;23;20142;-89
2022/12/07 01:01:56;;;;;;;20.20;8.53;;;;;;;;;;6215105;23;20145;-89
2022/12/07 01:04:22;;;;;;;17.80;9.30;;;3.10;99.90;;;;;;6211860;23;20149;-86
2022/12/07 01:06:48;;;;;;;16.33;9.23;;;;;;;;;;6211408;23;20926;-88
2022/12/07 01:09:13;;;;;;;19.13;9.50;;;3.20;99.90;;;;;;6208398;23;20169;-89
2022/12/07 01:11:39;;;;;;;11.90;7.73;;;3.20;99.90;;;;;;6208928;23;20459;-88
2022/12/07 01:14:05;;;;;;;15.60;8.80;;;;;;;;;;6208966;23;20150;-89
2022/12/07 01:16:32;;;;;;;15.27;8.73;;;3.10;99.90;;;;;;6211028;23;20239;-89
2022/12/07 01:18:59;;;;;;;14.80;7.85;;;3.10;99.90;;;;;;6209950;23;20368;-89
2022/12/07 01:21:27;;;;;;;13.25;8.60;;;3.10;99.90;;;;;;6207858;23;20183;-88
2022/12/07 01:23:52;;;;;;;15.90;8.30;;;3.10;99.90;;;;;;6206968;23;20282;-88
2022/12/07 01:26:21;;;;;;;16.40;8.70;;;3.10;99.90;;;;;;6206790;23;20274;-87
2022/12/07 01:28:47;;;;;;;16.00;8.45;;;2.60;99.90;;;;;;6202377;23;20182;-88
2022/12/07 01:31:15;;;;;;;17.57;8.57;;;3.10;99.90;;;;;;6206759;23;20161;-88
2022/12/07 01:33:43;;;;;;;18.05;8.52;;;3.10;99.90;;;;;;6210080;23;20444;-87
2022/12/07 01:36:16;;;;;;;16.13;9.27;;;3.10;99.90;;;;;;6213746;23;20189;-88
2022/12/07 01:38:42;;;;;;;14.90;8.38;;;3.10;99.90;;;;;;6212654;23;20125;-86
2022/12/07 01:41:09;;;;;;;15.18;8.20;;;3.10;99.90;;;;;;6213605;23;20595;-84
2022/12/07 01:43:35;;;;;;;13.90;7.95;;;3.10;99.90;;;;;;6204159;23;20256;-87
2022/12/07 01:46:02;;;;;;;15.40;8.40;;;3.10;99.90;;;;;;6206058;23;20229;-82
2022/12/07 01:48:34;;;;;;;13.18;8.00;;;3.10;99.90;;;;;;6210697;23;20157;-83
2022/12/07 01:51:04;;;;;;;13.90;7.72;;;3.10;99.90;;;;;;6217185;23;20173;-85
2022/12/07 01:53:31;;;;;;;11.70;7.07;;;3.10;99.90;;;;;;6205324;23;20208;-87
2022/12/07 01:55:58;;;;;;;14.75;7.88;;;3.10;99.90;;;;;;6202133;23;20191;-84
2022/12/07 01:58:24;;;;;;;20.13;8.80;;;3.10;99.90;;;;;;6200778;23;20196;-85
2022/12/07 02:00:50;;;;;;;16.77;8.43;;;3.10;99.90;;;;;;6201581;23;20141;-85
2022/12/07 02:03:23;;;;;;;12.20;7.87;;;3.10;99.90;;;;;;6199356;23;20539;-83
2022/12/07 02:05:51;;;;;;;20.40;9.95;;;3.00;99.90;;;;;;6213191;23;20152;-81
2022/12/07 02:08:17;;;;;;;23.10;15.27;;;3.00;99.90;;;;;;6198565;23;20583;-83
2022/12/07 02:10:43;;;;;;;20.45;16.08;;;3.10;99.90;;;;;;6197891;23;20156;-81
2022/12/07 02:13:19;;;;;;;15.73;11.17;;;3.10;99.90;;;;;;6199941;23;20157;-86
2022/12/07 02:15:54;;;;;;;19.67;9.85;;;3.10;99.90;;;;;;6201273;23;20986;-85
2022/12/07 02:18:29;;;;;;;17.33;10.45;;;3.10;99.90;;;;;;6206542;23;20208;-84
2022/12/07 02:21:00;;;;;;;25.63;9.95;;;3.00;99.90;;;;;;6207672;23;20164;-83
2022/12/07 02:24:00;;;;;;;20.23;11.30;;;2.90;99.90;;;;;;6205585;23;20223;-81
2022/12/07 02:26:45;;;;;;;16.65;9.32;;;2.90;99.90;;;;;;6214670;23;20153;-86
2022/12/07 02:29:24;;;;;;;19.52;10.45;;;2.80;99.90;;;;;;6211256;23;20218;-87
2022/12/07 02:32:07;;;;;;;20.60;12.38;;;2.80;99.90;;;;;;6210088;23;20173;-85
2022/12/07 02:35:04;;;;;;;17.65;10.27;;;2.70;99.90;;;;;;6208007;23;20146;-83
2022/12/07 02:37:39;;;;;;;23.45;12.05;;;2.60;99.90;;;;;;6208199;23;20252;-82
2022/12/07 02:40:10;;;;;;;18.88;11.02;;;2.60;99.90;;;;;;6207125;23;20137;-86
2022/12/07 02:42:42;;;;;;;19.55;11.35;;;2.50;99.90;;;;;;6204395;23;20181;-83
2022/12/07 02:45:10;;;;;;;21.15;12.60;;;2.50;99.90;;;;;;6208930;23;20133;-83
2022/12/07 02:47:36;;;;;;;21.60;12.00;;;2.50;99.90;;;;;;6206165;23;20157;-84
2022/12/07 02:50:05;;;;;;;21.67;11.00;;;2.50;99.90;;;;;;6205649;23;20215;-84
2022/12/07 02:52:31;;;;;;;20.25;11.35;;;2.50;99.90;;;;;;6206239;23;20754;-82
2022/12/07 02:54:57;;;;;;;16.33;9.33;;;2.50;99.90;;;;;;6224615;23;20161;-82
2022/12/07 02:57:59;;;;;;;21.17;11.43;;;2.60;99.90;;;;;;6211529;23;20184;-87
2022/12/07 03:00:24;;;;;;;22.55;12.35;;;2.60;99.90;;;;;;6210200;23;20152;-86
2022/12/07 03:02:55;;;;;;;20.30;10.80;;;2.70;99.90;;;;;;6232612;23;20208;-86
2022/12/07 03:05:36;;;;;;;20.23;10.50;;;2.80;99.90;;;;;;6207150;23;20146;-86
2022/12/07 03:08:23;;;;;;;18.50;9.73;;;2.80;99.90;;;;;;6209269;23;20133;-85
2022/12/07 03:10:55;;;;;;;17.08;9.80;;;2.80;99.90;;;;;;6208248;23;20137;-83
2022/12/07 03:13:34;;;;;;;22.80;11.32;;;2.80;99.90;;;;;;6205251;23;20145;-83
2022/12/07 03:16:25;;;;;;;21.38;11.48;;;2.80;99.90;;;;;;6205191;23;20172;-83
2022/12/07 03:19:01;;;;;;;22.15;12.60;;;2.90;99.90;;;;;;6203388;23;20231;-86
2022/12/07 03:21:35;;;;;;;18.92;10.85;;;3.00;99.90;;;;;;6203206;23;20280;-86
2022/12/07 03:24:06;;;;;;;18.10;10.77;;;3.20;99.90;;;;;;6207354;23;20137;-85
2022/12/07 03:26:36;;;;;;;22.05;10.57;;;3.30;99.90;;;;;;6200839;23;20145;-86
2022/12/07 03:29:10;;;;;;;17.98;10.00;;;3.30;99.90;;;;;;6202973;23;20217;-87
2022/12/07 03:31:45;;;;;;;21.23;8.55;;;3.40;99.90;;;;;;6198992;23;20179;-84
2022/12/07 03:34:43;;;;;;;14.73;7.50;;;3.30;99.90;;;;;;6203249;23;20137;-83
2022/12/07 03:37:17;;;;;;;13.35;7.70;;;3.20;99.90;;;;;;6196219;23;20654;-82
2022/12/07 03:40:08;;;;;;;17.00;8.80;;;3.10;99.90;;;;;;6196033;23;20484;-82
2022/12/07 03:42:34;;;;;;;18.60;8.70;;;3.00;99.90;;;;;;6199271;23;20188;-80
2022/12/07 03:45:02;;;;;;;17.83;8.83;;;3.00;99.90;;;;;;6211061;23;20141;-87
2022/12/07 03:48:07;;;;;;;18.35;9.65;;;3.00;99.90;;;;;;6203817;23;20380;-84
2022/12/07 03:50:48;;;;;;;19.33;11.35;;;3.00;99.90;;;;;;6106402;23;20150;-82
2022/12/07 03:53:22;;;;;;;21.08;12.63;;;3.00;99.90;;;;;;6201891;23;20305;-82
2022/12/07 03:55:49;;;;;;;23.05;15.85;;;3.00;99.90;;;;;;6200603;23;20262;-81
2022/12/07 03:58:21;;;;;;;18.25;10.98;;;3.00;99.90;;;;;;6198975;23;20156;-82
2022/12/07 04:00:48;;;;;;;20.40;11.07;;;3.00;99.90;;;;;;6201338;23;20142;-81
2022/12/07 04:03:14;;;;;;;17.10;10.30;;;3.00;99.90;;;;;;6206405;23;20219;-86
2022/12/07 04:05:40;;;;;;;17.50;10.13;;;3.00;99.90;;;;;;6205255;23;20149;-81
2022/12/07 04:08:06;;;;;;;16.35;9.25;;;3.00;99.90;;;;;;6226140;23;20161;-82
2022/12/07 04:10:31;;;;;;;18.03;9.10;;;2.90;99.90;;;;;;6203853;23;20228;-81
2022/12/07 04:12:57;;;;;;;13.60;9.03;;;2.90;99.90;;;;;;6203371;23;20240;-83
2022/12/07 04:15:23;;;;;;;19.57;10.23;;;2.90;99.90;;;;;;6205375;23;20137;-80
2022/12/07 04:17:48;;;;;;;17.00;8.80;;;2.80;99.90;;;;;;6253627;22;20168;-84
2022/12/07 04:20:14;;;;;;;19.47;9.40;;;2.80;99.90;;;;;;6226601;23;20244;-82
2022/12/07 04:22:39;;;;;;;19.43;11.07;;;2.80;99.90;;;;;;6214540;23;20181;-87
2022/12/07 04:25:05;;;;;;;20.83;12.73;;;2.80;99.90;;;;;;6208145;23;20193;-85
2022/12/07 04:27:31;;;;;;;17.60;9.10;;;2.80;99.90;;;;;;6229169;23;20229;-80
2022/12/07 04:29:56;;;;;;;13.77;7.53;;;2.80;99.90;;;;;;6205810;23;20380;-86
2022/12/07 04:32:23;;;;;;;16.90;7.93;;;2.80;99.90;;;;;;6203114;23;20181;-84
2022/12/07 04:34:48;;;;;;;14.25;8.43;;;2.70;99.90;;;;;;6203556;23;20161;-83
2022/12/07 04:37:14;;;;;;;14.90;7.67;;;2.60;99.90;;;;;;6202489;23;20565;-82
2022/12/07 04:39:40;;;;;;;13.60;7.20;;;2.60;99.90;;;;;;6205405;23;20230;-83
2022/12/07 04:42:05;;;;;;;17.00;8.90;;;2.40;99.90;;;;;;6203673;23;20544;-85
2022/12/07 04:44:31;;;;;;;13.60;9.40;;;2.50;99.90;;;;;;6203820;23;20145;-84
2022/12/07 04:46:57;;;;;;;16.10;9.50;;;2.40;99.90;;;;;;6202615;23;20219;-83
2022/12/07 04:49:23;;;;;;;13.70;8.30;;;2.40;99.90;;;;;;6202302;23;20384;-87
2022/12/07 04:51:49;;;;;;;11.50;7.50;;;2.30;99.90;;;;;;6210122;23;20172;-84
2022/12/07 04:54:15;;;;;;;11.20;7.60;;;2.40;99.90;;;;;;6205899;23;20164;-84
2022/12/07 04:56:41;;;;;;;14.27;7.15;;;2.40;99.90;;;;;;6201162;23;20204;-85
2022/12/07 04:59:08;;;;;;;12.75;6.60;;;2.50;99.90;;;;;;6200543;23;20211;-83
2022/12/07 05:01:34;;;;;;;8.20;5.35;;;2.50;99.90;;;;;;6200712;23;20177;-82
2022/12/07 05:04:00;;;;;;;12.23;6.90;;;2.60;99.90;;;;;;6202977;23;20628;-82
2022/12/07 05:06:26;;;;;;;13.50;6.78;;;2.60;99.90;;;;;;6192862;23;20149;-81
2022/12/07 05:08:52;;;;;;;15.53;6.17;;;2.60;99.90;;;;;;6199067;23;20160;-82
2022/12/07 05:14:03;;;;;;;10.45;5.65;;;2.70;99.90;;;;;;6197565;23;20168;-79
2022/12/07 05:16:29;;;;;;;11.60;6.13;;;2.80;99.90;;;;;;6203710;23;20181;-81
2022/12/07 05:18:55;;;;;;;8.80;6.83;;;;;;;;;;6207564;23;20200;-84
2022/12/07 05:21:21;;;;;;;8.35;5.00;;;2.80;99.90;;;;;;6222651;23;21129;-83
2022/12/07 05:23:46;;;;;;;10.50;5.93;;;2.80;99.90;;;;;;6214177;23;20149;-83
2022/12/07 05:26:12;;;;;;;12.00;5.70;;;2.90;99.90;;;;;;6213078;23;20376;-85
2022/12/07 05:28:38;;;;;;;8.63;6.53;;;2.90;99.90;;;;;;6206044;23;20199;-85
2022/12/07 05:31:04;;;;;;;16.23;9.00;;;;;;;;;;6215870;22;20157;-80
2022/12/07 05:33:29;;;;;;;16.00;10.18;;;2.90;99.90;;;;;;6224480;22;20470;-85
2022/12/07 05:35:55;;;;;;;12.87;7.43;;;2.90;99.90;;;;;;6235013;23;20261;-83
2022/12/07 05:38:20;;;;;;;11.70;6.73;;;2.90;99.90;;;;;;6206256;23;20161;-84
2022/12/07 05:40:46;;;;;;;13.90;7.33;;;2.90;99.90;;;;;;6207071;23;20145;-86
2022/12/07 05:43:11;;;;;;;12.60;6.60;;;3.00;99.90;;;;;;6203461;23;20228;-85
2022/12/07 05:45:37;;;;;;;14.70;9.50;;;3.00;99.90;;;;;;6204287;23;20667;-86
2022/12/07 05:48:03;;;;;;;19.13;11.90;;;3.00;99.90;;;;;;6202362;23;20205;-82
2022/12/07 05:50:28;;;;;;;13.87;8.80;;;3.00;99.90;;;;;;6224076;23;20161;-89
2022/12/07 05:52:54;;;;;;;10.37;6.20;;;3.00;99.90;;;;;;6205977;23;20211;-87
2022/12/07 05:55:19;;;;;;;10.83;6.47;;;3.00;99.90;;;;;;6203266;23;20145;-86
2022/12/07 05:59:22;;;;;;;10.70;7.23;;;;;;;;;;6205312;23;20164;-83
2022/12/07 06:00:32;;;;;;;22.23;11.75;;;2.90;99.90;;;;;;6206062;23;20628;-84
2022/12/07 06:02:57;;;;;;;10.35;7.90;;;2.90;99.90;;;;;;6228197;23;20258;-86
2022/12/07 06:05:23;;;;;;;19.67;10.83;;;2.90;99.90;;;;;;6202146;23;20145;-86
2022/12/07 06:07:48;;;;;;;10.17;6.90;;;2.80;99.90;;;;;;6229371;23;20211;-85
2022/12/07 06:10:14;;;;;;;14.93;6.57;;;2.80;99.90;;;;;;6206868;23;20157;-83
2022/12/07 06:12:42;;;;;;;12.27;6.07;;;2.80;99.90;;;;;;6206530;23;20216;-85
2022/12/07 06:15:08;;;;;;;9.20;5.82;;;2.80;99.90;;;;;;6206741;23;20161;-88
2022/12/07 06:17:34;;;;;;;9.52;6.07;;;2.80;99.90;;;;;;6207890;23;20690;-84
2022/12/07 06:19:59;;;;;;;11.70;7.67;;;2.80;99.90;;;;;;6206804;23;20149;-84
2022/12/07 06:22:25;;;;;;;11.93;7.80;;;2.80;99.90;;;;;;6208971;23;20166;-85
2022/12/07 06:24:50;;;;;;;12.80;8.00;;;2.80;99.90;;;;;;6207506;23;20153;-84
2022/12/07 06:27:16;;;;;;;15.10;6.03;;;2.90;99.90;;;;;;6207069;23;20142;-85
2022/12/07 06:29:41;;;;;;;11.87;6.00;;;2.90;99.90;;;;;;6207388;23;20162;-87
2022/12/07 06:32:07;;;;;;;10.20;5.77;;;2.80;99.90;;;;;;6207809;23;20220;-84
2022/12/07 06:34:33;;;;;;;12.73;9.37;;;;;;;;;;6208213;23;20157;-84
2022/12/07 06:36:58;;;;;;;12.13;8.10;;;2.90;99.90;;;;;;6205232;23;20192;-86
2022/12/07 06:39:26;;;;;;;7.17;4.60;;;2.90;99.90;;;;;;6205558;23;20173;-85
2022/12/07 06:41:52;;;;;;;9.65;6.30;;;2.90;99.90;;;;;;6206247;23;20384;-84
2022/12/07 06:44:18;;;;;;;13.07;6.50;;;2.90;99.90;;;;;;6207284;23;20185;-86
2022/12/07 06:46:44;;;;;;;12.82;6.60;;;2.90;99.90;;;;;;6226723;22;20376;-84
2022/12/07 06:49:10;;;;;;;8.13;4.03;;;2.90;99.90;;;;;;6222770;23;20232;-87
2022/12/07 06:51:36;;;;;;;8.17;5.20;;;2.90;99.90;;;;;;6220971;23;20257;-87
2022/12/07 06:54:04;;;;;;;10.95;5.38;;;3.00;99.90;;;;;;6218799;23;20145;-83
2022/12/07 06:56:30;;;;;;;9.27;5.95;;;2.90;99.90;;;;;;6224701;22;20529;-88
2022/12/07 06:58:56;;;;;;;8.53;7.00;;;;;;;;;;6212831;23;20173;-86
2022/12/07 07:01:22;;;;;;;11.57;6.43;;;2.90;99.90;;;;;;6199775;23;20252;-85
2022/12/07 07:03:47;;;;;;;15.40;6.20;;;3.00;99.90;;;;;;6207250;23;20185;-85
2022/12/07 07:06:13;;;;;;;11.80;6.00;;;2.90;99.90;;;;;;6207365;23;20225;-84
2022/12/07 07:08:39;;;;;;;13.80;8.50;;;3.00;99.90;;;;;;6209609;23;20149;-85
2022/12/07 07:11:06;;;;;;;13.20;6.83;;;3.00;99.90;;;;;;6212131;23;20434;-88
2022/12/07 07:13:32;;;;;;;8.13;4.57;;;3.00;99.90;;;;;;6208891;23;20726;-87
2022/12/07 07:15:58;;;;;;;8.50;5.70;;;;;;;;;;6211126;23;20176;-84
2022/12/07 07:18:24;;;;;;;10.23;5.87;;;;;;;;;;6208160;23;20711;-85
2022/12/07 07:20:50;;;;;;;14.00;7.80;;;3.00;99.90;;;;;;6207632;23;20384;-84
2022/12/07 07:23:16;;;;;;;14.18;8.57;;;3.00;99.90;;;;;;6208851;23;20153;-83
2022/12/07 07:25:42;;;;;;;8.53;5.87;;;2.90;99.90;;;;;;6205708;23;20161;-81
2022/12/07 07:28:07;;;;;;;9.60;6.43;;;;;;;;;;6207870;23;20153;-85
2022/12/07 07:30:33;;;;;;;10.27;6.60;;;3.00;99.90;;;;;;6207883;23;20160;-85
2022/12/07 07:33:00;;;;;;;11.40;5.80;;;3.00;99.90;;;;;;6208751;23;20893;-81
2022/12/07 07:35:27;;;;;;;17.92;7.00;;;3.00;99.90;;;;;;6208142;23;20654;-86
2022/12/07 07:37:54;;;;;;;14.27;8.50;;;3.00;99.90;;;;;;6209210;23;20152;-84
2022/12/07 07:40:20;;;;;;;11.25;7.38;;;3.10;99.90;;;;;;6207997;23;20181;-83
2022/12/07 07:42:49;;;;;;;11.80;6.47;;;3.10;99.90;;;;;;6208440;23;20193;-83
2022/12/07 07:45:15;;;;;;;13.20;5.35;;;3.10;99.90;;;;;;6207940;23;20412;-83
2022/12/07 07:47:41;;;;;;;14.17;6.10;;;3.10;99.90;;;;;;6205524;23;20687;-89
2022/12/07 07:50:06;;;;;;;12.17;6.10;;;3.10;99.90;;;;;;6209007;23;20149;-83
2022/12/07 07:52:32;;;;;;;10.30;8.20;;;3.10;99.90;;;;;;6208701;23;20165;-85
2022/12/07 07:54:58;;;;;;;13.13;7.20;;;3.20;99.90;;;;;;6210875;23;20423;-84
2022/12/07 07:57:23;;;;;;;12.53;6.30;;;3.20;99.90;;;;;;6208975;23;20612;-82
2022/12/07 07:59:49;;;;;;;12.73;6.30;;;3.20;99.90;;;;;;6216453;23;20172;-82
2022/12/07 08:02:17;;;;;;;10.20;6.03;;;3.30;99.90;;;;;;6221385;22;20617;-87
2022/12/07 08:04:43;;;;;;;12.63;6.35;;;;;;;;;;6214862;23;20193;-85
2022/12/07 08:07:09;;;;;;;11.60;6.53;;;3.40;99.90;;;;;;6217610;23;20263;-86
2022/12/07 08:09:35;;;;;;;11.63;6.63;;;3.50;99.90;;;;;;6219722;23;20153;-86
2022/12/07 08:12:00;;;;;;;8.93;5.47;;;3.40;99.90;;;;;;6220954;23;20217;-86
2022/12/07 08:14:27;;;;;;;8.87;5.00;;;3.40;99.90;;;;;;6219595;23;20208;-85
2022/12/07 08:16:53;;;;;;;9.93;5.78;;;3.60;99.90;;;;;;6220145;23;20189;-85
2022/12/07 08:19:18;;;;;;;13.17;5.20;;;3.60;99.90;;;;;;6219489;23;20153;-85
2022/12/07 08:21:44;;;;;;;12.10;6.50;;;3.60;99.90;;;;;;6221200;23;20129;-85
2022/12/07 08:24:09;;;;;;;9.97;5.40;;;3.70;99.90;;;;;;6219697;23;20161;-85
2022/12/07 08:26:35;;;;;;;10.27;5.73;;;3.90;99.90;;;;;;6218455;23;20219;-85
2022/12/07 08:29:00;;;;;;;11.33;3.77;;;3.90;99.90;;;;;;6219504;23;20593;-84
2022/12/07 08:31:27;;;;;;;8.17;4.70;;;3.90;99.90;;;;;;6219899;23;20163;-85
2022/12/07 08:33:53;;;;;;;9.60;5.10;;;3.90;99.90;;;;;;6220484;23;20188;-84
2022/12/07 08:36:18;;;;;;;6.60;4.17;;;3.90;99.90;;;;;;6220401;23;20191;-83
2022/12/07 08:38:44;;;;;;;5.50;4.00;;;4.00;99.90;;;;;;6217548;23;20157;-84
2022/12/07 08:41:10;;;;;;;7.47;4.30;;;3.80;99.90;;;;;;6218143;23;20153;-85
2022/12/07 08:43:39;;;;;;;7.40;4.33;;;3.80;99.90;;;;;;6217968;23;20160;-87
2022/12/07 08:46:37;;;;;;;5.50;3.50;;;3.90;99.90;;;;;;6218580;23;20177;-85
2022/12/07 08:49:23;;;;;;;7.85;4.35;;;3.80;99.90;;;;;;6218315;23;20145;-87
2022/12/07 08:51:49;;;;;;;8.57;4.78;;;3.90;99.90;;;;;;6217576;23;20153;-86
2022/12/07 08:54:17;;;;;;;8.33;2.90;;;3.90;99.90;;;;;;6217443;23;20204;-86
2022/12/07 08:56:44;;;;;;;8.57;5.13;;;3.90;99.90;;;;;;6218921;23;20424;-86
2022/12/07 08:59:10;;;;;;;5.63;4.30;;;4.20;99.90;;;;;;6215303;23;20184;-87
2022/12/07 09:01:35;;;;;;;11.27;4.90;;;4.20;99.90;;;;;;6218756;23;20148;-86
2022/12/07 09:04:01;;;;;;;9.00;4.50;;;4.30;99.90;;;;;;6217433;23;20161;-87
2022/12/07 09:06:27;;;;;;;8.13;4.20;;;4.30;99.90;;;;;;6218701;23;20441;-86
2022/12/07 09:08:57;;;;;;;4.82;3.50;;;4.30;99.90;;;;;;6215677;23;20528;-86
2022/12/07 09:11:22;;;;;;;5.15;3.25;;;4.10;99.90;;;;;;6212287;23;20155;-86
2022/12/07 09:13:48;;;;;;;3.90;3.37;;;4.10;99.90;;;;;;6211522;23;20655;-87
2022/12/07 09:16:13;;;;;;;6.43;4.53;;;4.30;99.90;;;;;;6213379;23;20220;-86
2022/12/07 09:18:39;;;;;;;4.50;2.70;;;4.20;99.90;;;;;;6213056;23;20157;-86
2022/12/07 09:21:05;;;;;;;4.83;2.70;;;4.10;99.90;;;;;;6211992;23;20153;-87
2022/12/07 09:23:30;;;;;;;6.10;3.97;;;4.20;99.90;;;;;;6212251;23;20200;-87
2022/12/07 09:26:04;;;;;;;4.80;3.20;;;4.30;99.90;;;;;;6211879;23;20177;-86
2022/12/07 09:28:31;;;;;;;5.38;3.63;;;4.30;99.90;;;;;;6213646;23;20225;-86
2022/12/07 09:30:56;;;;;;;5.78;3.20;;;4.30;99.90;;;;;;6212964;23;20176;-86
2022/12/07 09:33:22;;;;;;;7.33;3.50;;;4.40;99.90;;;;;;6211986;23;20670;-87
2022/12/07 09:35:49;;;;;;;2.90;2.50;;;4.50;99.90;;;;;;6212291;23;20505;-86
2022/12/07 09:38:16;;;;;;;6.55;3.55;;;4.40;99.90;;;;;;6211814;23;20371;-86
2022/12/07 09:40:43;;;;;;;4.28;2.33;;;4.30;99.90;;;;;;6211806;23;20149;-86
2022/12/07 09:43:19;;;;;;;3.15;2.75;;;4.20;99.90;;;;;;6211913;23;20160;-86
2022/12/07 09:45:47;;;;;;;4.18;2.60;;;4.20;99.90;;;;;;6212068;23;20164;-87
2022/12/07 09:48:22;;;;;;;4.38;2.70;;;4.20;99.90;;;;;;6213640;23;20161;-87
2022/12/07 09:50:49;;;;;;;5.55;3.22;;;4.20;99.90;;;;;;6212029;23;20188;-86
2022/12/07 09:53:25;;;;;;;6.20;2.92;;;4.20;99.90;;;;;;6211585;23;20162;-86
2022/12/07 09:55:52;;;;;;;3.40;3.10;;;4.10;99.90;;;;;;6211053;23;20188;-87
2022/12/07 09:58:23;;;;;;;4.45;3.33;;;4.10;99.90;;;;;;6208709;23;20156;-87
2022/12/07 10:00:59;;;;;;;6.07;3.58;;;4.10;99.90;;;;;;6211931;23;20160;-87
2022/12/07 10:03:29;;;;;;;6.70;3.28;;;4.10;99.90;;;;;;6210958;23;20547;-85
2022/12/07 10:05:55;;;;;;;7.07;3.88;;;4.10;99.90;;;;;;6211791;23;20549;-87
2022/12/07 10:08:20;;;;;;;4.45;3.00;;;4.20;99.90;;;;;;6213436;23;20200;-87
2022/12/07 10:10:51;;;;;;;8.47;4.80;;;4.30;99.90;;;;;;6211466;23;20149;-86
2022/12/07 10:13:21;;;;;;;9.40;5.13;;;4.40;99.90;;;;;;6210630;23;20177;-88
2022/12/07 10:15:57;;;;;;;7.18;5.18;;;4.30;99.90;;;;;;6210689;23;20192;-87
2022/12/07 10:18:31;;;;;;;8.27;4.40;;;4.50;99.90;;;;;;6213094;23;20145;-87
2022/12/07 10:21:20;;;;;;;6.22;3.70;;;4.30;99.90;;;;;;6211467;23;20153;-87
2022/12/07 10:24:10;;;;;;;5.28;3.08;;;4.30;99.90;;;;;;6211452;23;20172;-85
2022/12/07 10:26:41;;;;;;;6.70;3.92;;;4.20;99.90;;;;;;6210645;23;20255;-85
2022/12/07 10:29:22;;;;;;;6.75;3.80;;;4.30;99.90;;;;;;6211167;23;20224;-87
2022/12/07 10:32:26;;;;;;;7.72;4.78;;;4.50;99.90;;;;;;6214051;23;20141;-87
2022/12/07 10:35:30;;;;;;;7.20;3.65;;;4.90;99.90;;;;;;6195457;23;20141;-85
2022/12/07 10:37:58;;;;;;;6.78;4.05;;;5.30;99.90;;;;;;6214040;23;20207;-86
2022/12/07 10:40:28;;;;;;;10.07;5.65;;;5.30;99.90;;;;;;6211075;23;20615;-87
2022/12/07 10:43:02;;;;;;;8.05;4.43;;;5.50;99.90;;;;;;6209943;23;20149;-86
2022/12/07 10:45:28;;;;;;;8.15;4.85;;;5.50;99.90;;;;;;6211847;23;20148;-85
2022/12/07 10:48:12;;;;;;;7.90;4.43;;;5.50;99.90;;;;;;6214733;23;20506;-87
2022/12/07 10:51:01;;;;;;;6.85;4.60;;;5.70;99.90;;;;;;6210995;23;20364;-85
2022/12/07 10:53:58;;;;;;;10.07;5.65;;;5.70;99.90;;;;;;6213021;23;20133;-86
2022/12/07 10:56:50;;;;;;;7.30;4.60;;;5.70;99.90;;;;;;6211905;23;20193;-86
2022/12/07 10:59:29;;;;;;;8.15;4.95;;;5.50;99.90;;;;;;6208596;23;20129;-85
2022/12/07 11:02:10;;;;;;;8.55;4.72;;;5.60;99.90;;;;;;6210370;23;20141;-86
2022/12/07 11:05:17;;;;;;;8.15;5.53;;;5.60;99.90;;;;;;6211851;23;20223;-85
2022/12/07 11:08:00;;;;;;;11.60;6.15;;;5.40;99.90;;;;;;6121566;23;20697;-86
2022/12/07 11:10:48;;;;;;;11.30;7.38;;;5.40;99.90;;;;;;6228687;23;20153;-86
2022/12/07 11:13:45;;;;;;;12.15;7.22;;;5.40;99.90;;;;;;6210611;23;20188;-86
2022/12/07 11:16:23;;;;;;;7.43;5.45;;;5.20;99.90;;;;;;6210339;23;20193;-86
2022/12/07 11:18:56;;;;;;;7.50;4.65;;;4.80;99.90;;;;;;6214858;23;20163;-85
2022/12/07 11:21:34;;;;;;;10.40;5.45;;;4.60;99.90;;;;;;6213087;23;20168;-85
2022/12/07 11:24:18;;;;;;;10.73;5.55;;;4.80;99.90;;;;;;6213531;23;20220;-87
2022/12/07 11:26:56;;;;;;;10.32;6.43;;;4.70;99.90;;;;;;6210814;23;20626;-87
2022/12/07 11:29:32;;;;;;;15.65;7.82;;;5.00;99.90;;;;;;6211141;23;20156;-85
2022/12/07 11:32:27;;;;;;;10.32;6.40;;;5.10;99.90;;;;;;6213909;22;20216;-89
2022/12/07 11:35:22;;;;;;;9.90;5.95;;;4.70;99.90;;;;;;6209471;23;20182;-88
2022/12/07 11:37:50;;;;;;;8.27;5.70;;;4.80;99.90;;;;;;6196313;23;20158;-88
2022/12/07 11:40:30;;;;;;;11.63;6.85;;;4.70;99.90;;;;;;6185053;23;20180;-88
2022/12/07 11:43:03;;;;;;;10.32;4.75;;;4.90;99.90;;;;;;6182089;23;20351;-88
2022/12/07 11:45:36;;;;;;;14.55;7.45;;;4.90;99.90;;;;;;6182953;23;20582;-88
2022/12/07 11:48:02;;;;;;;14.18;6.47;;;5.00;99.90;;;;;;6182154;23;20142;-89
2022/12/07 11:50:36;;;;;;;13.37;7.37;;;5.10;99.90;;;;;;6182400;23;20468;-88
2022/12/07 11:53:07;;;;;;;12.38;6.75;;;5.10;99.90;;;;;;6183029;23;20138;-88
2022/12/07 11:55:57;;;;;;;12.82;7.28;;;5.10;99.90;;;;;;6202468;23;20173;-89
2022/12/07 11:58:28;;;;;;;9.85;5.93;;;5.10;99.90;;;;;;6204141;23;20137;-88
2022/12/07 12:01:13;;;;;;;11.95;5.90;;;5.00;99.90;;;;;;6183200;23;20253;-89
2022/12/07 12:03:47;;;;;;;13.73;6.45;;;5.20;99.90;;;;;;6180363;23;20150;-88
2022/12/07 12:06:13;;;;;;;13.70;6.10;;;5.10;99.90;;;;;;6178364;23;20149;-88
2022/12/07 12:09:10;;;;;;;10.38;6.57;;;5.20;99.90;;;;;;6180053;23;20164;-88
2022/12/07 12:11:54;;;;;;;8.95;5.68;;;5.30;99.90;;;;;;6168744;23;20150;-88
2022/12/07 12:14:38;;;;;;;10.13;6.15;;;5.30;99.90;;;;;;6180646;23;20173;-89
2022/12/07 12:17:31;;;;;;;9.57;6.28;;;5.30;99.90;;;;;;6198490;23;20222;-89
2022/12/07 12:20:20;;;;;;;11.93;6.70;;;5.50;99.90;;;;;;6199569;23;20142;-89
2022/12/07 12:22:58;;;;;;;8.65;5.80;;;5.70;99.90;;;;;;6177909;23;20188;-89
2022/12/07 12:25:28;;;;;;;14.10;6.13;;;6.00;99.90;;;;;;6179388;23;20519;-89
2022/12/07 12:27:57;;;;;;;14.55;7.82;;;6.10;99.90;;;;;;6178849;23;20142;-90
2022/12/07 12:30:41;;;;;;;13.52;6.72;;;6.10;99.90;;;;;;6179487;23;20163;-89
2022/12/07 12:33:29;;;;;;;8.88;5.95;;;5.90;99.90;;;;;;6181650;23;20168;-90
2022/12/07 12:36:15;;;;;;;19.80;6.60;;;5.70;99.90;;;;;;6184202;23;20264;-90
2022/12/07 12:38:51;;;;;;;9.75;6.90;;;5.70;99.90;;;;;;6183469;23;20146;-90
2022/12/07 12:41:35;;;;;;;10.50;5.82;;;5.70;99.90;;;;;;6181435;23;20153;-90
2022/12/07 12:44:02;;;;;;;10.50;6.68;;;5.80;99.90;;;;;;6181837;23;20207;-88
2022/12/07 12:46:34;;;;;;;9.80;5.97;;;6.00;99.90;;;;;;6181750;23;20181;-89
2022/12/07 12:49:20;;;;;;;12.55;7.70;;;6.10;99.90;;;;;;6180718;23;20157;-89
2022/12/07 12:51:53;;;;;;;9.85;6.32;;;6.30;99.90;;;;;;6183744;23;20215;-88
2022/12/07 12:54:25;;;;;;;11.57;6.55;;;6.20;99.90;;;;;;6180962;23;20209;-90
2022/12/07 12:57:24;;;;;;;9.93;6.15;;;6.20;99.90;;;;;;6179400;23;20257;-90
2022/12/07 12:59:52;;;;;;;8.45;4.93;;;6.30;99.90;;;;;;6181442;23;20511;-89
2022/12/07 13:02:30;;;;;;;13.52;7.45;;;6.30;99.90;;;;;;6180087;23;20196;-89
2022/12/07 13:05:09;;;;;;;10.23;6.80;;;6.50;99.90;;;;;;6181720;23;20165;-89
2022/12/07 13:07:44;;;;;;;9.52;5.65;;;6.90;99.90;;;;;;6182186;23;20188;-89
2022/12/07 13:10:34;;;;;;;8.57;5.18;;;7.20;99.90;;;;;;6179123;23;20158;-89
2022/12/07 13:13:14;;;;;;;11.60;7.25;;;6.40;99.90;;;;;;6180807;23;20138;-88
2022/12/07 13:15:44;;;;;;;9.70;6.32;;;6.00;99.90;;;;;;6181494;23;20172;-89